備忘log

21FEB06-RCTP

2006/02/26 02:51

2006년 5월 16일 - 인천 국제공항

WX : RKSI 151500Z 17005KT 2800 BR NSC 13/11 Q1019 NOSIG

저시정....

스로틀을 늦게 빼주어 막판에 약간 높아지고

요크를 살짝만 움직였는데도 터프하게 뱅크가 들어갔네요 ㅠㅠ

http://piano000.net 에서 다른 동영상들을 감상하실 수 있습니다. ]

2006/02/26 02:51 2006/02/26 02:51

trackbacks

trackbacks rss

http://blog.piano000.net/trackback/118


facebook comments


Leave a Comment